Terminal Aerodrome Forecast
Issued by NWS

Home | Current Version | Previous Version | Text Only | Print | Product List | Glossary On
Versions: 1 2 3 4 5 6 7 8 9 10 11 12 13 14 15 16 17 18 19
000
FTUS43 KABR 292333 AAA
TAFPIR
TAF AMD
KPIR 292333Z 3000/3024 15013KT P6SM FEW050
     FM300600 14007KT P6SM VCTS BKN090CB BKN250
     FM300900 14006KT P6SM SCT200
     FM301400 14010KT P6SM SCT200=

USA.gov is the U.S. government's official web portal to all federal, state and local government web resources and services.